Time;durP1;ratioP1;P1;durP2;ratioP2;P2;SDS_P1;SDS_P2;PMS_P1;PMS_P2;Temp;Humidity;BMP_temperature;BMP_pressure;BME280_temperature;BME280_humidity;BME280_pressure;Samples;Min_cycle;Max_cycle;Signal;HPM_P1;HPM_P2
2022/12/08 00:00:14;;;;;;;;;;;;;;;7.03;47.74;99490.03;4352426;32;34346;-67
2022/12/08 00:02:43;;;;;;;;;;;;;;;7.05;47.93;99481.00;4355733;32;35237;-66
2022/12/08 00:10:43;;;;;;;;;;;;;;;6.98;47.96;99483.19;4359504;32;34386;-67
2022/12/08 00:13:16;;;;;;;;;;;;;;;6.99;48.29;99484.03;4356643;32;33694;-67
2022/12/08 00:15:43;;;;;;;;;;;;;;;6.96;48.12;99485.09;4359536;32;35101;-68
2022/12/08 00:18:10;;;;;;;;;;;;;;;6.87;48.93;99475.06;4361543;32;33849;-67
2022/12/08 00:20:38;;;;;;;;;;;;;;;6.84;49.18;99475.25;4361949;32;34139;-67
2022/12/08 00:23:05;;;;;;;;;;;;;;;6.74;49.63;99484.75;4360842;32;35308;-67
2022/12/08 00:25:34;;;;;;;;;;;;;;;6.90;50.06;99476.66;4356069;32;31745;-66
2022/12/08 00:28:02;;;;;;;;;;;;;;;7.23;48.90;99479.81;4357682;32;34228;-68
2022/12/08 00:30:29;;;;;;;;;;;;;;;7.52;47.93;99477.03;4360843;32;35498;-67
2022/12/08 00:32:56;;;;;;;;;;;;;;;7.46;48.12;99477.44;4360146;32;32782;-68
2022/12/08 00:35:23;;;;;;;;;;;;;;;7.61;47.29;99478.25;4356845;32;34292;-67
2022/12/08 00:37:51;;;;;;;;;;;;;;;7.59;47.25;99482.81;4359691;32;34067;-67
2022/12/08 00:40:26;;;;;;;;;;;;;;;7.07;48.56;99489.75;4359031;32;33009;-67
2022/12/08 00:42:55;;;;;;;;;;;;;;;7.06;48.71;99495.16;4359869;32;34314;-66
2022/12/08 00:45:22;;;;;;;;;;;;;;;7.20;48.39;99495.12;4356803;32;32362;-66
2022/12/08 00:47:49;;;;;;;;;;;;;;;7.16;48.78;99494.47;4354266;32;33971;-64
2022/12/08 00:50:16;;;;;;;;;;;;;;;7.14;49.23;99495.53;4344837;32;32803;-66
2022/12/08 00:52:44;;;;;;;;;;;;;;;7.30;48.86;99490.91;4358412;32;34686;-67
2022/12/08 00:55:11;;;;;;;;;;;;;;;7.29;48.72;99491.88;4361174;32;33249;-64
2022/12/08 00:57:38;;;;;;;;;;;;;;;7.35;48.52;99483.50;4360634;32;34034;-67
2022/12/08 01:00:06;;;;;;;;;;;;;;;7.50;48.08;99486.09;4360375;32;34158;-67
2022/12/08 01:02:34;;;;;;;;;;;;;;;7.53;47.99;99486.72;4365087;32;32533;-66
2022/12/08 01:05:01;;;;;;;;;;;;;;;7.67;47.59;99486.69;4357863;32;33773;-64
2022/12/08 01:07:28;;;;;;;;;;;;;;;7.70;47.44;99480.28;4357418;32;33759;-65
2022/12/08 01:09:56;;;;;;;;;;;;;;;7.70;46.90;99488.25;4356289;32;34237;-65
2022/12/08 01:12:24;;;;;;;;;;;;;;;7.55;47.35;99486.66;4358168;32;34560;-64
2022/12/08 01:14:51;;;;;;;;;;;;;;;7.47;47.37;99489.78;4355995;32;33332;-64
2022/12/08 01:17:18;;;;;;;;;;;;;;;7.33;48.23;99495.19;4354368;32;34095;-64
2022/12/08 01:19:45;;;;;;;;;;;;;;;7.38;48.00;99485.06;4356543;32;33872;-65
2022/12/08 01:22:13;;;;;;;;;;;;;;;7.44;47.87;99482.00;4358211;32;34241;-65
2022/12/08 01:24:40;;;;;;;;;;;;;;;7.11;48.37;99493.91;4359158;32;34009;-67
2022/12/08 01:27:07;;;;;;;;;;;;;;;7.14;48.27;99493.72;4357268;32;35010;-64
2022/12/08 01:29:34;;;;;;;;;;;;;;;7.06;48.99;99487.16;4359822;32;34263;-65
2022/12/08 01:32:02;;;;;;;;;;;;;;;7.15;48.64;99486.56;4355424;32;34940;-65
2022/12/08 01:34:29;;;;;;;;;;;;;;;7.08;48.80;99477.28;4360774;32;33668;-68
2022/12/08 01:36:56;;;;;;;;;;;;;;;6.97;49.06;99480.66;4359001;32;32706;-66
2022/12/08 01:39:24;;;;;;;;;;;;;;;7.30;48.26;99487.41;4347100;32;34118;-66
2022/12/08 01:41:51;;;;;;;;;;;;;;;7.12;48.57;99484.97;4352734;32;34871;-66
2022/12/08 01:44:18;;;;;;;;;;;;;;;7.54;46.90;99484.91;4358022;32;32926;-65
2022/12/08 01:46:48;;;;;;;;;;;;;;;7.23;48.42;99481.63;4358036;32;34165;-64
2022/12/08 01:49:21;;;;;;;;;;;;;;;7.16;48.20;99475.84;4356797;32;34745;-65
2022/12/08 01:52:09;;;;;;;;;;;;;;;7.11;48.31;99472.63;4358562;32;34343;-67
2022/12/08 01:54:41;;;;;;;;;;;;;;;7.27;48.23;99466.31;4351987;32;33672;-65
2022/12/08 01:57:10;;;;;;;;;;;;;;;7.41;47.42;99466.22;4348264;32;34147;-65
2022/12/08 01:59:41;;;;;;;;;;;;;;;7.14;47.90;99472.41;4358652;32;32770;-65
2022/12/08 02:02:08;;;;;;;;;;;;;;;6.98;48.10;99471.72;4345949;32;34128;-66
2022/12/08 02:04:36;;;;;;;;;;;;;;;6.76;48.91;99462.44;4360754;32;32885;-65
2022/12/08 02:07:03;;;;;;;;;;;;;;;7.11;47.62;99461.97;4347353;32;33773;-65
2022/12/08 02:09:34;;;;;;;;;;;;;;;7.04;47.39;99466.00;4345553;32;33369;-65
2022/12/08 02:12:02;;;;;;;;;;;;;;;6.81;47.94;99455.97;4358407;32;33762;-66
2022/12/08 02:14:29;;;;;;;;;;;;;;;6.65;48.97;99451.63;4333839;32;33768;-65
2022/12/08 02:16:59;;;;;;;;;;;;;;;6.51;50.05;99451.63;4358596;32;32379;-66
2022/12/08 02:19:33;;;;;;;;;;;;;;;6.59;50.10;99453.81;4358106;32;33332;-65
2022/12/08 02:22:05;;;;;;;;;;;;;;;6.88;49.45;99451.97;4357452;32;32901;-65
2022/12/08 02:24:36;;;;;;;;;;;;;;;6.86;49.64;99451.19;4360428;32;33337;-67
2022/12/08 02:27:26;;;;;;;;;;;;;;;7.10;48.67;99449.63;4356678;32;35015;-68
2022/12/08 02:30:06;;;;;;;;;;;;;;;7.14;47.99;99448.47;4349342;32;35423;-65
2022/12/08 02:32:33;;;;;;;;;;;;;;;7.08;48.00;99456.00;4356916;32;34067;-65
2022/12/08 02:35:00;;;;;;;;;;;;;;;6.76;49.43;99457.09;4358029;32;34575;-66
2022/12/08 02:37:29;;;;;;;;;;;;;;;6.80;49.27;99444.47;4354521;32;33087;-65
2022/12/08 02:39:56;;;;;;;;;;;;;;;7.12;48.55;99445.03;4345246;32;33536;-65
2022/12/08 02:42:37;;;;;;;;;;;;;;;7.02;48.46;99443.94;4358137;32;33183;-66
2022/12/08 02:45:15;;;;;;;;;;;;;;;6.65;49.96;99443.66;4344992;32;33222;-65
2022/12/08 02:47:43;;;;;;;;;;;;;;;6.66;50.57;99433.88;4359854;32;33985;-65
2022/12/08 02:50:11;;;;;;;;;;;;;;;6.63;51.05;99429.59;4353189;32;34212;-66
2022/12/08 02:52:40;;;;;;;;;;;;;;;6.85;50.32;99438.88;4357537;32;34662;-68
2022/12/08 02:55:09;;;;;;;;;;;;;;;6.97;49.23;99440.75;4359331;32;33412;-65
2022/12/08 02:58:03;;;;;;;;;;;;;;;6.88;49.20;99428.87;4356267;32;35115;-65
2022/12/08 03:00:35;;;;;;;;;;;;;;;6.62;50.89;99427.88;4357539;32;34109;-67
2022/12/08 03:03:02;;;;;;;;;;;;;;;6.80;50.66;99433.81;4353386;32;34180;-65
2022/12/08 03:05:38;;;;;;;;;;;;;;;6.81;50.47;99424.06;4360257;32;34864;-64
2022/12/08 03:08:13;;;;;;;;;;;;;;;7.04;49.91;99428.72;4357708;32;34920;-66
2022/12/08 03:10:52;;;;;;;;;;;;;;;7.04;49.30;99427.88;4344303;32;34304;-65
2022/12/08 03:13:20;;;;;;;;;;;;;;;7.14;48.86;99427.19;4359847;32;35080;-64
2022/12/08 03:15:48;;;;;;;;;;;;;;;7.41;48.37;99432.47;4359956;32;33034;-65
2022/12/08 03:18:16;;;;;;;;;;;;;;;7.59;47.57;99426.88;4342637;32;34815;-65
2022/12/08 03:20:44;;;;;;;;;;;;;;;7.64;47.37;99420.28;4358380;32;33104;-65
2022/12/08 03:23:11;;;;;;;;;;;;;;;7.40;48.25;99416.59;4345842;32;34044;-64
2022/12/08 03:25:40;;;;;;;;;;;;;;;7.27;48.81;99423.72;4360098;32;34356;-67
2022/12/08 03:28:08;;;;;;;;;;;;;;;7.15;48.90;99423.53;4340795;32;34248;-65
2022/12/08 03:30:36;;;;;;;;;;;;;;;7.19;49.10;99410.88;4354705;32;34541;-64
2022/12/08 03:33:05;;;;;;;;;;;;;;;7.30;48.85;99421.69;4345510;32;33225;-64
2022/12/08 03:35:33;;;;;;;;;;;;;;;7.32;48.85;99421.56;4356871;32;34127;-66
2022/12/08 03:38:02;;;;;;;;;;;;;;;7.38;48.71;99426.50;4357489;32;32404;-64
2022/12/08 03:40:29;;;;;;;;;;;;;;;7.47;48.44;99418.75;4358304;32;35155;-72
2022/12/08 03:42:56;;;;;;;;;;;;;;;7.46;48.46;99418.88;4355807;32;34937;-64
2022/12/08 03:45:24;;;;;;;;;;;;;;;7.24;49.18;99420.28;4360223;32;32117;-64
2022/12/08 03:47:51;;;;;;;;;;;;;;;7.21;49.41;99415.16;4358756;32;33874;-65
2022/12/08 03:50:18;;;;;;;;;;;;;;;7.34;49.17;99414.34;4359574;32;35357;-67
2022/12/08 03:52:45;;;;;;;;;;;;;;;7.57;48.37;99420.78;4360146;32;35002;-64
2022/12/08 03:55:13;;;;;;;;;;;;;;;7.23;49.82;99415.06;4359390;32;34452;-64
2022/12/08 03:57:40;;;;;;;;;;;;;;;7.14;50.23;99407.69;4358241;32;34183;-64
2022/12/08 04:00:08;;;;;;;;;;;;;;;7.50;49.06;99409.69;4340465;32;37841;-66
2022/12/08 04:02:36;;;;;;;;;;;;;;;7.66;48.53;99410.38;4345903;32;34128;-64
2022/12/08 04:05:03;;;;;;;;;;;;;;;7.64;48.76;99406.09;4359282;32;33214;-65
2022/12/08 04:07:31;;;;;;;;;;;;;;;7.71;48.62;99412.75;4357970;32;32600;-66
2022/12/08 04:09:58;;;;;;;;;;;;;;;7.75;48.53;99408.06;4356719;32;34196;-64
2022/12/08 04:12:25;;;;;;;;;;;;;;;7.68;48.97;99404.94;4358747;32;34141;-64
2022/12/08 04:14:52;;;;;;;;;;;;;;;7.76;48.71;99399.09;4358480;32;33327;-66
2022/12/08 04:17:20;;;;;;;;;;;;;;;7.86;48.30;99390.34;4357716;32;34138;-63
2022/12/08 04:19:47;;;;;;;;;;;;;;;7.82;48.65;99390.69;4356621;32;33917;-64
2022/12/08 04:22:14;;;;;;;;;;;;;;;7.88;48.38;99393.78;4356967;32;33328;-65
2022/12/08 04:24:41;;;;;;;;;;;;;;;7.76;48.53;99386.63;4359943;32;34082;-64
2022/12/08 04:27:09;;;;;;;;;;;;;;;7.64;48.83;99392.78;4352969;32;33938;-64
2022/12/08 04:29:36;;;;;;;;;;;;;;;7.78;48.34;99386.53;4357870;32;35370;-67
2022/12/08 04:32:03;;;;;;;;;;;;;;;7.77;48.22;99385.69;4356856;32;35484;-64
2022/12/08 04:34:31;;;;;;;;;;;;;;;7.78;48.10;99389.19;4357329;32;33643;-64
2022/12/08 04:36:58;;;;;;;;;;;;;;;7.77;48.21;99387.47;4350856;32;34547;-64
2022/12/08 04:39:25;;;;;;;;;;;;;;;7.51;49.56;99397.25;4356949;32;34017;-66
2022/12/08 04:41:52;;;;;;;;;;;;;;;7.78;48.82;99392.69;4356254;32;35289;-65
2022/12/08 04:44:19;;;;;;;;;;;;;;;7.84;48.57;99391.44;4354575;32;32909;-66
2022/12/08 04:46:47;;;;;;;;;;;;;;;7.76;48.67;99394.59;4358901;32;34170;-65
2022/12/08 04:49:14;;;;;;;;;;;;;;;7.82;48.58;99388.00;4358827;32;33951;-64
2022/12/08 04:51:41;;;;;;;;;;;;;;;7.88;48.48;99391.09;4349389;32;35290;-65
2022/12/08 04:54:09;;;;;;;;;;;;;;;7.89;48.06;99384.81;4356182;32;34226;-67
2022/12/08 04:56:36;;;;;;;;;;;;;;;7.80;48.33;99381.94;4355565;32;34246;-64
2022/12/08 04:59:03;;;;;;;;;;;;;;;7.73;48.63;99383.31;4357395;32;35043;-63
2022/12/08 05:01:31;;;;;;;;;;;;;;;7.65;49.09;99384.69;4356856;32;35287;-64
2022/12/08 05:03:58;;;;;;;;;;;;;;;7.85;48.57;99387.81;4354780;32;32855;-63
2022/12/08 05:06:25;;;;;;;;;;;;;;;7.81;48.81;99386.31;4357083;32;35200;-64
2022/12/08 05:08:53;;;;;;;;;;;;;;;7.84;48.60;99386.94;4356638;32;35349;-65
2022/12/08 05:11:20;;;;;;;;;;;;;;;7.86;48.56;99382.34;4357683;32;34244;-64
2022/12/08 05:13:47;;;;;;;;;;;;;;;7.91;48.70;99395.38;4355084;32;33463;-64
2022/12/08 05:16:15;;;;;;;;;;;;;;;7.90;48.89;99391.00;4355905;32;34387;-63
2022/12/08 05:18:42;;;;;;;;;;;;;;;7.98;48.80;99388.66;4358492;32;35385;-66
2022/12/08 05:21:09;;;;;;;;;;;;;;;7.97;48.70;99396.78;4357372;32;33518;-66
2022/12/08 05:23:37;;;;;;;;;;;;;;;7.93;48.64;99390.81;4345462;32;33262;-64
2022/12/08 05:26:04;;;;;;;;;;;;;;;7.91;48.87;99385.56;4344872;32;34021;-64
2022/12/08 05:28:32;;;;;;;;;;;;;;;8.00;48.56;99378.75;4349766;32;33093;-64
2022/12/08 05:31:09;;;;;;;;;;;;;;;7.88;49.10;99388.44;4349102;32;34104;-66
2022/12/08 05:33:36;;;;;;;;;;;;;;;7.74;49.61;99385.88;4339441;33;34057;-64
2022/12/08 05:36:04;;;;;;;;;;;;;;;7.73;49.94;99370.00;4343423;32;34830;-64
2022/12/08 05:38:31;;;;;;;;;;;;;;;7.96;49.00;99369.28;4346286;32;34303;-64
2022/12/08 05:40:58;;;;;;;;;;;;;;;8.02;48.78;99366.16;4345533;32;34076;-63
2022/12/08 05:43:25;;;;;;;;;;;;;;;7.94;48.97;99366.69;4350287;32;33452;-64
2022/12/08 05:45:53;;;;;;;;;;;;;;;7.79;49.99;99378.41;4342431;32;34758;-64
2022/12/08 05:48:20;;;;;;;;;;;;;;;7.88;49.23;99376.94;4341940;32;34310;-65
2022/12/08 05:50:49;;;;;;;;;;;;;;;7.87;49.04;99377.91;4343206;33;35206;-63
2022/12/08 05:53:17;;;;;;;;;;;;;;;7.72;49.42;99377.13;4342448;32;33195;-63
2022/12/08 05:55:45;;;;;;;;;;;;;;;7.72;49.80;99374.47;4342014;32;33432;-64
2022/12/08 05:58:13;;;;;;;;;;;;;;;7.65;49.93;99375.84;4337508;33;34647;-64
2022/12/08 06:00:41;;;;;;;;;;;;;;;7.53;50.32;99382.88;4339722;32;35488;-70
2022/12/08 06:03:11;;;;;;;;;;;;;;;7.70;50.04;99376.37;4347245;32;33247;-67
2022/12/08 06:05:39;;;;;;;;;;;;;;;7.78;49.90;99378.53;4340782;32;32734;-66
2022/12/08 06:08:06;;;;;;;;;;;;;;;7.51;51.18;99386.59;4348887;32;34202;-67
2022/12/08 06:10:34;;;;;;;;;;;;;;;7.60;50.89;99386.81;4339781;32;34007;-65
2022/12/08 06:13:01;;;;;;;;;;;;;;;7.68;50.77;99383.63;4343555;32;33016;-65
2022/12/08 06:15:28;;;;;;;;;;;;;;;7.56;51.24;99385.31;4341693;32;33974;-65
2022/12/08 06:17:56;;;;;;;;;;;;;;;7.70;50.70;99381.72;4341003;32;34141;-67
2022/12/08 06:20:23;;;;;;;;;;;;;;;7.72;51.00;99371.81;4340064;32;33951;-65
2022/12/08 06:22:50;;;;;;;;;;;;;;;7.69;51.10;99372.88;4351524;32;33607;-65
2022/12/08 06:25:17;;;;;;;;;;;;;;;7.97;50.40;99381.63;4342039;32;32648;-67
2022/12/08 06:27:45;;;;;;;;;;;;;;;7.87;50.64;99386.75;4339110;32;34093;-65
2022/12/08 06:30:12;;;;;;;;;;;;;;;7.95;50.30;99386.19;4346813;32;34234;-65
2022/12/08 06:32:39;;;;;;;;;;;;;;;7.68;50.88;99386.31;4349294;32;34276;-65
2022/12/08 06:35:07;;;;;;;;;;;;;;;7.47;51.86;99386.78;4349361;32;34016;-64
2022/12/08 06:37:34;;;;;;;;;;;;;;;7.84;50.58;99391.44;4342198;32;32448;-65
2022/12/08 06:40:02;;;;;;;;;;;;;;;7.96;50.53;99390.59;4345734;32;35510;-67
2022/12/08 06:42:48;;;;;;;;;;;;;;;8.13;49.85;99397.41;4337685;32;31952;-65
2022/12/08 06:45:16;;;;;;;;;;;;;;;8.07;50.09;99392.50;4344502;33;35042;-65
2022/12/08 06:47:43;;;;;;;;;;;;;;;8.05;50.63;99400.59;4348765;32;33516;-65
2022/12/08 06:50:11;;;;;;;;;;;;;;;8.16;50.23;99400.69;4344002;33;34302;-65
2022/12/08 06:52:40;;;;;;;;;;;;;;;8.17;50.25;99397.06;4344323;32;33299;-67
2022/12/08 06:55:24;;;;;;;;;;;;;;;7.60;51.52;99401.94;4345258;32;32822;-63
2022/12/08 06:58:12;;;;;;;;;;;;;;;8.07;50.61;99406.66;4335492;33;32677;-62
2022/12/08 07:00:40;;;;;;;;;;;;;;;7.98;50.71;99399.31;4342379;32;34748;-64
2022/12/08 07:03:07;;;;;;;;;;;;;;;7.99;50.85;99405.50;4343971;32;33346;-63
2022/12/08 07:05:35;;;;;;;;;;;;;;;8.05;50.27;99402.41;4342027;32;32987;-63
2022/12/08 07:08:02;;;;;;;;;;;;;;;7.97;50.82;99399.44;4343929;32;34284;-63
2022/12/08 07:10:30;;;;;;;;;;;;;;;7.37;51.74;99408.81;4341773;32;32866;-63
2022/12/08 07:12:57;;;;;;;;;;;;;;;7.72;51.17;99413.59;4347367;32;33677;-64
2022/12/08 07:15:25;;;;;;;;;;;;;;;7.75;51.44;99410.72;4343709;32;33909;-63
2022/12/08 07:17:52;;;;;;;;;;;;;;;7.36;52.24;99407.97;4343548;32;35228;-62
2022/12/08 07:20:26;;;;;;;;;;;;;;;7.21;52.90;99412.50;4343678;32;34631;-65
2022/12/08 07:22:53;;;;;;;;;;;;;;;6.57;54.64;99414.00;4352863;32;32454;-63
2022/12/08 07:25:20;;;;;;;;;;;;;;;7.06;54.11;99410.00;4357813;32;34312;-64
2022/12/08 07:27:50;;;;;;;;;;;;;;;7.33;53.32;99407.34;4357163;32;35014;-63
2022/12/08 07:30:17;;;;;;;;;;;;;;;6.85;54.52;99399.81;4357820;32;34304;-64
2022/12/08 07:32:44;;;;;;;;;;;;;;;7.57;53.13;99404.81;4358741;32;34400;-65
2022/12/08 07:35:12;;;;;;;;;;;;;;;7.38;53.60;99408.75;4355653;32;34105;-65
2022/12/08 07:37:39;;;;;;;;;;;;;;;6.53;55.51;99412.50;4355686;32;35599;-64
2022/12/08 07:40:07;;;;;;;;;;;;;;;7.75;52.67;99400.91;4355954;32;33869;-64
2022/12/08 07:42:34;;;;;;;;;;;;;;;7.15;54.66;99396.09;4357166;32;33131;-65
2022/12/08 07:45:02;;;;;;;;;;;;;;;7.70;53.44;99392.38;4356459;32;33648;-64
2022/12/08 07:47:29;;;;;;;;;;;;;;;6.90;55.20;99395.06;4340310;32;34148;-64
2022/12/08 07:49:57;;;;;;;;;;;;;;;7.46;54.42;99389.56;4349815;32;34336;-64
2022/12/08 07:52:24;;;;;;;;;;;;;;;7.61;54.20;99399.19;4351239;32;31616;-64
2022/12/08 07:54:51;;;;;;;;;;;;;;;8.12;53.20;99401.88;4359417;32;34425;-64
2022/12/08 07:57:19;;;;;;;;;;;;;;;8.36;52.51;99395.78;4355720;32;34294;-64
2022/12/08 07:59:46;;;;;;;;;;;;;;;8.12;53.31;99401.00;4356625;32;34080;-65
2022/12/08 08:02:16;;;;;;;;;;;;;;;8.27;52.76;99391.94;4356310;32;33051;-64
2022/12/08 08:04:52;;;;;;;;;;;;;;;8.55;52.61;99400.69;4357763;32;32851;-65
2022/12/08 08:07:20;;;;;;;;;;;;;;;8.71;51.72;99398.59;4357728;32;33035;-65
2022/12/08 08:09:47;;;;;;;;;;;;;;;8.81;51.63;99402.31;4358183;32;34178;-65
2022/12/08 08:12:14;;;;;;;;;;;;;;;8.89;51.25;99396.38;4354837;32;33397;-65
2022/12/08 08:14:58;;;;;;;;;;;;;;;8.82;51.64;99401.31;4359189;32;34085;-64
2022/12/08 08:17:26;;;;;;;;;;;;;;;8.62;51.97;99389.44;4359246;32;34061;-64
2022/12/08 08:19:54;;;;;;;;;;;;;;;8.20;53.45;99389.81;4360709;32;34432;-64
2022/12/08 08:22:21;;;;;;;;;;;;;;;8.32;53.19;99392.47;4352474;32;34085;-64
2022/12/08 08:24:49;;;;;;;;;;;;;;;8.63;52.25;99387.62;4360380;32;33710;-64
2022/12/08 08:27:16;;;;;;;;;;;;;;;8.57;52.51;99388.94;4359235;32;35476;-64
2022/12/08 08:29:43;;;;;;;;;;;;;;;8.62;52.42;99394.78;4361291;32;32592;-65
2022/12/08 08:32:11;;;;;;;;;;;;;;;8.90;51.54;99387.44;4362065;32;33182;-64
2022/12/08 08:34:38;;;;;;;;;;;;;;;9.04;51.34;99387.25;4359094;32;34205;-65
2022/12/08 08:37:05;;;;;;;;;;;;;;;8.86;51.83;99384.16;4358294;32;35816;-65
2022/12/08 08:39:32;;;;;;;;;;;;;;;8.40;53.27;99378.59;4360520;32;33834;-65
2022/12/08 08:42:00;;;;;;;;;;;;;;;8.78;52.06;99378.50;4361039;32;33372;-64
2022/12/08 08:44:27;;;;;;;;;;;;;;;8.71;52.40;99397.75;4360903;32;33715;-64
2022/12/08 08:46:54;;;;;;;;;;;;;;;8.61;52.88;99393.09;4357743;32;34188;-64
2022/12/08 08:49:22;;;;;;;;;;;;;;;8.82;52.19;99373.78;4360582;32;34817;-65
2022/12/08 08:51:49;;;;;;;;;;;;;;;8.58;52.54;99376.44;4357718;32;33504;-64
2022/12/08 08:54:16;;;;;;;;;;;;;;;8.43;53.81;99370.38;4357321;32;34351;-64
2022/12/08 08:56:44;;;;;;;;;;;;;;;8.28;53.91;99369.66;4352909;32;34347;-64
2022/12/08 08:59:11;;;;;;;;;;;;;;;7.54;55.68;99383.72;4358756;32;35440;-64
2022/12/08 09:01:38;;;;;;;;;;;;;;;8.13;55.59;99390.25;4358213;32;32018;-64
2022/12/08 09:04:06;;;;;;;;;;;;;;;7.84;56.10;99394.09;4354528;32;34086;-64
2022/12/08 09:06:33;;;;;;;;;;;;;;;8.16;54.75;99387.38;4358817;32;35509;-65
2022/12/08 09:09:00;;;;;;;;;;;;;;;8.36;54.34;99377.09;4358496;32;32192;-64
2022/12/08 09:11:28;;;;;;;;;;;;;;;7.84;55.72;99368.31;4359535;32;34618;-64
2022/12/08 09:13:55;;;;;;;;;;;;;;;7.89;56.08;99373.28;4334542;32;798969;-65
2022/12/08 09:16:23;;;;;;;;;;;;;;;8.20;55.92;99371.16;4361112;32;34572;-64
2022/12/08 09:18:53;;;;;;;;;;;;;;;8.44;54.90;99379.25;4359854;32;33516;-64
2022/12/08 09:21:22;;;;;;;;;;;;;;;8.20;55.24;99376.50;4358390;32;34332;-63
2022/12/08 09:23:50;;;;;;;;;;;;;;;8.39;54.33;99384.91;4353916;32;32494;-64
2022/12/08 09:26:21;;;;;;;;;;;;;;;8.54;53.78;99381.16;4358632;32;34119;-64
2022/12/08 09:28:49;;;;;;;;;;;;;;;8.67;53.28;99374.91;4358724;32;35270;-64
2022/12/08 09:31:17;;;;;;;;;;;;;;;8.37;54.33;99374.31;4352212;32;34483;-64
2022/12/08 09:33:44;;;;;;;;;;;;;;;8.46;54.26;99359.50;4358203;32;35326;-64
2022/12/08 09:36:11;;;;;;;;;;;;;;;8.44;54.00;99360.56;4360044;32;34322;-64
2022/12/08 09:38:39;;;;;;;;;;;;;;;8.62;53.87;99341.41;4344240;32;32829;-64
2022/12/08 09:41:13;;;;;;;;;;;;;;;8.75;53.04;99332.53;4355213;32;33015;-64
2022/12/08 09:43:51;;;;;;;;;;;;;;;8.25;53.33;99337.00;4356529;32;35151;-64
2022/12/08 09:46:18;;;;;;;;;;;;;;;7.73;55.28;99338.03;4345771;32;34087;-64
2022/12/08 09:48:48;;;;;;;;;;;;;;;8.19;54.03;99333.00;4354154;32;33168;-63
2022/12/08 09:51:15;;;;;;;;;;;;;;;7.18;56.01;99340.00;4355463;32;32994;-64
2022/12/08 09:54:06;;;;;;;;;;;;;;;7.83;53.20;99339.09;4346279;32;35029;-64
2022/12/08 09:56:35;;;;;;;;;;;;;;;7.37;53.46;99334.28;4331356;32;34213;-64
2022/12/08 09:59:04;;;;;;;;;;;;;;;7.75;52.13;99313.00;4344552;32;34854;-64
2022/12/08 10:01:32;;;;;;;;;;;;;;;6.84;53.96;99330.72;4360318;32;33329;-64
2022/12/08 10:04:00;;;;;;;;;;;;;;;6.58;54.94;99343.94;4356957;32;32575;-64
2022/12/08 10:06:27;;;;;;;;;;;;;;;7.43;53.00;99334.72;4358140;32;32670;-64
2022/12/08 10:08:54;;;;;;;;;;;;;;;7.88;51.96;99337.81;4362068;32;35369;-64
2022/12/08 10:11:24;;;;;;;;;;;;;;;6.50;54.74;99340.91;4362746;32;33113;-64
2022/12/08 10:13:54;;;;;;;;;;;;;;;6.71;53.20;99336.88;4345569;32;35234;-64
2022/12/08 10:16:31;;;;;;;;;;;;;;;7.86;51.94;99331.72;4337039;32;33614;-64
2022/12/08 10:19:19;;;;;;;;;;;;;;;8.12;51.68;99323.69;4357188;32;34838;-63
2022/12/08 10:21:47;;;;;;;;;;;;;;;7.80;51.28;99323.31;4359490;32;31789;-64
2022/12/08 10:24:33;;;;;;;;;;;;;;;8.15;51.04;99315.47;4361102;32;33830;-64
2022/12/08 10:27:01;;;;;;;;;;;;;;;7.04;53.13;99314.31;4355804;32;34410;-63
2022/12/08 10:29:28;;;;;;;;;;;;;;;7.53;52.37;99307.44;4344650;32;33910;-64
2022/12/08 10:31:56;;;;;;;;;;;;;;;6.79;53.26;99306.25;4359918;32;33413;-64
2022/12/08 10:34:25;;;;;;;;;;;;;;;7.65;51.72;99293.28;4345682;32;34884;-64
2022/12/08 10:36:55;;;;;;;;;;;;;;;8.36;50.54;99287.28;4359983;32;34355;-64
2022/12/08 10:39:32;;;;;;;;;;;;;;;8.24;50.66;99292.66;4360320;32;34942;-64
2022/12/08 10:42:00;;;;;;;;;;;;;;;7.51;52.13;99288.06;4353937;32;32072;-64
2022/12/08 10:44:27;;;;;;;;;;;;;;;7.45;52.21;99276.03;4358075;32;35239;-65
2022/12/08 10:46:55;;;;;;;;;;;;;;;5.95;55.91;99278.84;4360874;32;34111;-63
2022/12/08 10:49:26;;;;;;;;;;;;;;;7.59;52.77;99264.41;4346062;32;33947;-65
2022/12/08 10:51:54;;;;;;;;;;;;;;;7.77;51.18;99264.91;4345872;32;33234;-64
2022/12/08 10:54:31;;;;;;;;;;;;;;;6.88;53.78;99261.28;4355409;32;34316;-64
2022/12/08 10:56:59;;;;;;;;;;;;;;;6.28;55.61;99264.34;4359574;32;33149;-64
2022/12/08 10:59:26;;;;;;;;;;;;;;;5.60;56.02;99257.13;4356423;32;34324;-64
2022/12/08 11:01:54;;;;;;;;;;;;;;;5.01;57.73;99251.88;4359871;32;34070;-64
2022/12/08 11:04:37;;;;;;;;;;;;;;;5.75;57.86;99250.03;4359117;32;33839;-64
2022/12/08 11:07:04;;;;;;;;;;;;;;;6.66;55.96;99251.22;4360643;32;32980;-64
2022/12/08 11:09:36;;;;;;;;;;;;;;;7.54;53.36;99231.91;4360926;32;34405;-64
2022/12/08 11:12:07;;;;;;;;;;;;;;;7.67;50.89;99230.09;4359927;32;32700;-64
2022/12/08 11:14:43;;;;;;;;;;;;;;;7.14;52.74;99222.25;4352481;32;35583;-64
2022/12/08 11:17:12;;;;;;;;;;;;;;;7.59;52.57;99211.16;4359171;32;34314;-64
2022/12/08 11:19:44;;;;;;;;;;;;;;;6.82;55.22;99205.81;4358526;32;34155;-66
2022/12/08 11:22:22;;;;;;;;;;;;;;;6.97;53.55;99193.28;4354707;32;33830;-65
2022/12/08 11:25:00;;;;;;;;;;;;;;;7.42;52.75;99191.88;4346253;32;34431;-65
2022/12/08 11:27:28;;;;;;;;;;;;;;;6.96;53.60;99191.56;4360664;32;34388;-66
2022/12/08 11:29:55;;;;;;;;;;;;;;;6.99;53.95;99176.25;4360959;32;35631;-64
2022/12/08 11:32:22;;;;;;;;;;;;;;;7.63;51.99;99186.00;4356204;32;31753;-65
2022/12/08 11:35:03;;;;;;;;;;;;;;;6.80;53.77;99172.28;4346723;32;35287;-65
2022/12/08 11:37:41;;;;;;;;;;;;;;;6.63;54.47;99168.97;4342923;32;34823;-66
2022/12/08 11:40:22;;;;;;;;;;;;;;;6.43;54.20;99169.47;4357367;32;35274;-65
2022/12/08 11:42:50;;;;;;;;;;;;;;;7.64;53.25;99169.91;4357631;32;33195;-67
2022/12/08 11:45:19;;;;;;;;;;;;;;;7.92;51.18;99160.75;4355947;32;34403;-65
2022/12/08 11:47:48;;;;;;;;;;;;;;;8.48;49.90;99157.56;4360193;32;34125;-65
2022/12/08 11:50:26;;;;;;;;;;;;;;;8.28;50.16;99156.34;4360258;32;34092;-66
2022/12/08 11:52:53;;;;;;;;;;;;;;;8.70;49.34;99156.78;4348139;32;33348;-66
2022/12/08 11:55:26;;;;;;;;;;;;;;;7.29;51.94;99156.44;4358831;32;33833;-66
2022/12/08 11:57:54;;;;;;;;;;;;;;;8.09;51.29;99159.53;4359473;32;35932;-66
2022/12/08 12:00:21;;;;;;;;;;;;;;;8.46;50.40;99153.28;4357508;32;35217;-65
2022/12/08 12:02:50;;;;;;;;;;;;;;;8.52;48.90;99145.69;4359483;32;32656;-65
2022/12/08 12:05:27;;;;;;;;;;;;;;;8.19;49.42;99148.19;4345981;32;34929;-64
2022/12/08 12:08:23;;;;;;;;;;;;;;;7.84;50.46;99147.16;4359608;32;32804;-65
2022/12/08 12:10:53;;;;;;;;;;;;;;;8.34;49.65;99149.69;4359111;32;34334;-66
2022/12/08 12:13:23;;;;;;;;;;;;;;;8.47;50.59;99147.84;4344770;32;34793;-64
2022/12/08 12:16:09;;;;;;;;;;;;;;;7.64;51.58;99156.59;4359562;32;34552;-67
2022/12/08 12:18:44;;;;;;;;;;;;;;;8.11;51.43;99154.91;4356739;32;35572;-66
2022/12/08 12:21:15;;;;;;;;;;;;;;;8.75;49.67;99153.75;4355087;32;34610;-65
2022/12/08 12:23:44;;;;;;;;;;;;;;;8.61;49.70;99155.66;4344234;32;33628;-66
2022/12/08 12:26:21;;;;;;;;;;;;;;;8.81;49.27;99148.78;4359039;32;35291;-66
2022/12/08 12:28:56;;;;;;;;;;;;;;;8.51;50.32;99149.31;4360315;32;35256;-67
2022/12/08 12:31:27;;;;;;;;;;;;;;;8.92;47.66;99153.28;4344175;32;34192;-66
2022/12/08 12:34:24;;;;;;;;;;;;;;;8.90;48.13;99155.25;4360063;32;33645;-67
2022/12/08 12:37:04;;;;;;;;;;;;;;;8.52;49.55;99153.69;4343005;32;34889;-66
2022/12/08 12:39:33;;;;;;;;;;;;;;;7.91;50.05;99150.22;4352617;32;35433;-66
2022/12/08 12:42:01;;;;;;;;;;;;;;;8.58;48.13;99149.72;4358681;32;34030;-67
2022/12/08 12:44:28;;;;;;;;;;;;;;;8.06;49.67;99141.09;4358890;32;33715;-68
2022/12/08 13:00:28;;;;;;;;;;;;;;;8.58;49.90;99125.69;4356574;32;34541;-66
2022/12/08 13:02:56;;;;;;;;;;;;;;;8.48;50.68;99125.56;4359651;32;36974;-66
2022/12/08 13:05:28;;;;;;;;;;;;;;;8.69;48.59;99122.19;4344659;32;33844;-65
2022/12/08 13:08:15;;;;;;;;;;;;;;;8.62;48.88;99116.47;4354848;32;33399;-66
2022/12/08 13:10:57;;;;;;;;;;;;;;;8.43;48.13;99111.69;4342684;32;33927;-67
2022/12/08 13:13:25;;;;;;;;;;;;;;;8.06;49.36;99111.78;4356710;32;34601;-66
2022/12/08 13:16:12;;;;;;;;;;;;;;;8.07;49.64;99101.97;4353505;32;34249;-65
2022/12/08 13:18:46;;;;;;;;;;;;;;;8.27;49.12;99105.81;4343518;32;32765;-65
2022/12/08 13:21:15;;;;;;;;;;;;;;;8.02;50.81;99099.63;4355202;32;35178;-66
2022/12/08 13:23:42;;;;;;;;;;;;;;;8.16;50.18;99101.28;4356201;32;34664;-66
2022/12/08 13:26:10;;;;;;;;;;;;;;;8.20;49.79;99099.25;4358179;32;33882;-67
2022/12/08 13:28:56;;;;;;;;;;;;;;;7.65;50.16;99091.69;4357496;32;33431;-66